sensor_id;sensor_type;location;lat;lon;timestamp;pressure;altitude;pressure_sealevel;temperature
69590;BMP180;56792;50.644;17.984;2022-07-04T00:01:44;99782.20;;;16.40
69590;BMP180;56792;50.644;17.984;2022-07-04T00:04:22;99781.80;;;16.40
69590;BMP180;56792;50.644;17.984;2022-07-04T00:07:23;99783.40;;;16.40
69590;BMP180;56792;50.644;17.984;2022-07-04T00:10:21;99780.60;;;16.38
69590;BMP180;56792;50.644;17.984;2022-07-04T00:13:14;99779.80;;;16.30
69590;BMP180;56792;50.644;17.984;2022-07-04T00:16:08;99777.40;;;16.30
69590;BMP180;56792;50.644;17.984;2022-07-04T00:19:01;99770.00;;;16.22
69590;BMP180;56792;50.644;17.984;2022-07-04T00:21:53;99773.80;;;16.20
69590;BMP180;56792;50.644;17.984;2022-07-04T00:24:34;99776.80;;;16.12
69590;BMP180;56792;50.644;17.984;2022-07-04T00:27:18;99778.40;;;16.10
69590;BMP180;56792;50.644;17.984;2022-07-04T00:30:15;99779.80;;;16.10
69590;BMP180;56792;50.644;17.984;2022-07-04T00:33:15;99782.40;;;16.10
69590;BMP180;56792;50.644;17.984;2022-07-04T00:36:10;99785.00;;;16.00
69590;BMP180;56792;50.644;17.984;2022-07-04T00:39:04;99783.80;;;16.00
69590;BMP180;56792;50.644;17.984;2022-07-04T00:41:44;99786.80;;;16.00
69590;BMP180;56792;50.644;17.984;2022-07-04T00:44:30;99783.80;;;15.90
69590;BMP180;56792;50.644;17.984;2022-07-04T00:47:28;99782.00;;;15.90
69590;BMP180;56792;50.644;17.984;2022-07-04T00:50:26;99779.20;;;15.90
69590;BMP180;56792;50.644;17.984;2022-07-04T00:53:21;99772.00;;;15.80
69590;BMP180;56792;50.644;17.984;2022-07-04T00:56:16;99771.60;;;15.80
69590;BMP180;56792;50.644;17.984;2022-07-04T00:59:11;99771.60;;;15.80
69590;BMP180;56792;50.644;17.984;2022-07-04T01:02:00;99770.60;;;15.80
69590;BMP180;56792;50.644;17.984;2022-07-04T01:04:53;99765.80;;;15.70
69590;BMP180;56792;50.644;17.984;2022-07-04T01:07:37;99763.20;;;15.70
69590;BMP180;56792;50.644;17.984;2022-07-04T01:10:29;99761.00;;;15.70
69590;BMP180;56792;50.644;17.984;2022-07-04T01:13:26;99757.40;;;15.66
69590;BMP180;56792;50.644;17.984;2022-07-04T01:47:43;99744.60;;;15.40
69590;BMP180;56792;50.644;17.984;2022-07-04T01:50:40;99737.80;;;15.40
69590;BMP180;56792;50.644;17.984;2022-07-04T01:53:20;99734.80;;;15.40
69590;BMP180;56792;50.644;17.984;2022-07-04T01:56:07;99734.40;;;15.40
69590;BMP180;56792;50.644;17.984;2022-07-04T01:59:03;99731.00;;;15.30
69590;BMP180;56792;50.644;17.984;2022-07-04T02:11:01;99725.00;;;15.30
69590;BMP180;56792;50.644;17.984;2022-07-04T02:13:54;99725.80;;;15.20
69590;BMP180;56792;50.644;17.984;2022-07-04T02:16:37;99727.20;;;15.20
69590;BMP180;56792;50.644;17.984;2022-07-04T02:20:14;99726.80;;;15.20
69590;BMP180;56792;50.644;17.984;2022-07-04T02:27:07;99725.80;;;15.20
69590;BMP180;56792;50.644;17.984;2022-07-04T02:29:53;99723.80;;;15.10
69590;BMP180;56792;50.644;17.984;2022-07-04T02:32:37;99719.20;;;15.10
69590;BMP180;56792;50.644;17.984;2022-07-04T02:39:16;99715.20;;;15.00
69590;BMP180;56792;50.644;17.984;2022-07-04T02:42:10;99718.00;;;15.00
69590;BMP180;56792;50.644;17.984;2022-07-04T02:44:55;99720.60;;;15.00
69590;BMP180;56792;50.644;17.984;2022-07-04T02:47:28;99723.60;;;15.00
69590;BMP180;56792;50.644;17.984;2022-07-04T02:51:00;99720.80;;;15.00
69590;BMP180;56792;50.644;17.984;2022-07-04T02:53:37;99715.60;;;15.00
69590;BMP180;56792;50.644;17.984;2022-07-04T02:56:14;99717.20;;;14.90
69590;BMP180;56792;50.644;17.984;2022-07-04T02:58:57;99716.00;;;14.90
69590;BMP180;56792;50.644;17.984;2022-07-04T03:01:57;99719.40;;;14.90
69590;BMP180;56792;50.644;17.984;2022-07-04T03:05:17;99722.20;;;14.90
69590;BMP180;56792;50.644;17.984;2022-07-04T03:07:55;99733.60;;;14.90
69590;BMP180;56792;50.644;17.984;2022-07-04T03:10:47;99729.20;;;14.90
69590;BMP180;56792;50.644;17.984;2022-07-04T03:13:33;99730.80;;;14.84
69590;BMP180;56792;50.644;17.984;2022-07-04T03:16:25;99730.80;;;14.80
69590;BMP180;56792;50.644;17.984;2022-07-04T03:19:09;99732.40;;;14.80
69590;BMP180;56792;50.644;17.984;2022-07-04T03:21:53;99733.80;;;14.80
69590;BMP180;56792;50.644;17.984;2022-07-04T03:24:40;99732.00;;;14.80
69590;BMP180;56792;50.644;17.984;2022-07-04T03:27:22;99725.40;;;14.80
69590;BMP180;56792;50.644;17.984;2022-07-04T03:30:00;99727.20;;;14.86
69590;BMP180;56792;50.644;17.984;2022-07-04T03:36:43;99718.60;;;14.90
69590;BMP180;56792;50.644;17.984;2022-07-04T03:39:36;99726.00;;;14.90
69590;BMP180;56792;50.644;17.984;2022-07-04T03:46:29;99722.20;;;15.00
69590;BMP180;56792;50.644;17.984;2022-07-04T03:49:06;99717.20;;;15.00
69590;BMP180;56792;50.644;17.984;2022-07-04T03:51:42;99712.60;;;15.00
69590;BMP180;56792;50.644;17.984;2022-07-04T03:54:17;99714.20;;;15.10
69590;BMP180;56792;50.644;17.984;2022-07-04T03:56:53;99713.60;;;15.10
69590;BMP180;56792;50.644;17.984;2022-07-04T03:59:28;99716.20;;;15.10
69590;BMP180;56792;50.644;17.984;2022-07-04T04:02:06;99721.80;;;15.20
69590;BMP180;56792;50.644;17.984;2022-07-04T04:04:43;99726.80;;;15.20
69590;BMP180;56792;50.644;17.984;2022-07-04T04:07:38;99729.40;;;15.30
69590;BMP180;56792;50.644;17.984;2022-07-04T04:10:13;99725.80;;;15.34
69590;BMP180;56792;50.644;17.984;2022-07-04T04:12:51;99726.20;;;15.40
69590;BMP180;56792;50.644;17.984;2022-07-04T04:15:26;99729.00;;;15.46
69590;BMP180;56792;50.644;17.984;2022-07-04T04:18:03;99728.00;;;15.50
69590;BMP180;56792;50.644;17.984;2022-07-04T04:20:41;99732.80;;;15.60
69590;BMP180;56792;50.644;17.984;2022-07-04T04:23:18;99735.20;;;15.70
69590;BMP180;56792;50.644;17.984;2022-07-04T04:25:54;99742.60;;;15.76
69590;BMP180;56792;50.644;17.984;2022-07-04T04:28:29;99745.80;;;15.84
69590;BMP180;56792;50.644;17.984;2022-07-04T04:35:15;99751.20;;;16.02
69590;BMP180;56792;50.644;17.984;2022-07-04T04:37:53;99740.60;;;16.14
69590;BMP180;56792;50.644;17.984;2022-07-04T04:40:28;99737.80;;;16.20
69590;BMP180;56792;50.644;17.984;2022-07-04T04:43:04;99743.40;;;16.30
69590;BMP180;56792;50.644;17.984;2022-07-04T04:45:42;99744.20;;;16.40
69590;BMP180;56792;50.644;17.984;2022-07-04T04:48:17;99739.40;;;16.50
69590;BMP180;56792;50.644;17.984;2022-07-04T04:50:52;99745.20;;;16.60
69590;BMP180;56792;50.644;17.984;2022-07-04T04:53:29;99741.00;;;16.70
69590;BMP180;56792;50.644;17.984;2022-07-04T04:56:05;99741.20;;;16.80
69590;BMP180;56792;50.644;17.984;2022-07-04T04:58:40;99737.80;;;16.90
69590;BMP180;56792;50.644;17.984;2022-07-04T05:01:12;99734.40;;;17.00
69590;BMP180;56792;50.644;17.984;2022-07-04T05:03:45;99733.40;;;17.10
69590;BMP180;56792;50.644;17.984;2022-07-04T05:06:22;99743.00;;;17.20
69590;BMP180;56792;50.644;17.984;2022-07-04T05:09:00;99747.00;;;17.34
69590;BMP180;56792;50.644;17.984;2022-07-04T05:11:37;99739.60;;;17.50
69590;BMP180;56792;50.644;17.984;2022-07-04T05:14:16;99742.40;;;17.60
69590;BMP180;56792;50.644;17.984;2022-07-04T05:16:51;99739.80;;;17.70
69590;BMP180;56792;50.644;17.984;2022-07-04T05:19:29;99745.20;;;17.80
69590;BMP180;56792;50.644;17.984;2022-07-04T05:22:24;99742.60;;;18.00
69590;BMP180;56792;50.644;17.984;2022-07-04T05:25:35;99734.20;;;18.12
69590;BMP180;56792;50.644;17.984;2022-07-04T05:28:13;99726.60;;;18.28
69590;BMP180;56792;50.644;17.984;2022-07-04T05:30:51;99728.40;;;18.40
69590;BMP180;56792;50.644;17.984;2022-07-04T05:33:28;99734.80;;;18.50
69590;BMP180;56792;50.644;17.984;2022-07-04T05:36:11;99738.20;;;18.60
69590;BMP180;56792;50.644;17.984;2022-07-04T05:38:47;99739.40;;;18.70
69590;BMP180;56792;50.644;17.984;2022-07-04T05:41:25;99736.40;;;18.82
69590;BMP180;56792;50.644;17.984;2022-07-04T05:44:25;99739.20;;;19.00
69590;BMP180;56792;50.644;17.984;2022-07-04T05:51:55;99735.60;;;19.30
69590;BMP180;56792;50.644;17.984;2022-07-04T05:54:54;99733.60;;;19.50
69590;BMP180;56792;50.644;17.984;2022-07-04T05:57:36;99739.20;;;19.66
69590;BMP180;56792;50.644;17.984;2022-07-04T06:50:09;99735.00;;;24.00
69590;BMP180;56792;50.644;17.984;2022-07-04T06:52:44;99734.60;;;24.22
69590;BMP180;56792;50.644;17.984;2022-07-04T06:55:37;99730.40;;;24.40
69590;BMP180;56792;50.644;17.984;2022-07-04T11:30:19;99750.80;;;35.22
69590;BMP180;56792;50.644;17.984;2022-07-04T14:10:18;99748.20;;;34.68
69590;BMP180;56792;50.644;17.984;2022-07-04T14:13:10;99746.40;;;34.46
69590;BMP180;56792;50.644;17.984;2022-07-04T14:16:10;99743.40;;;34.10
69590;BMP180;56792;50.644;17.984;2022-07-04T14:18:46;99748.20;;;33.70
69590;BMP180;56792;50.644;17.984;2022-07-04T16:29:19;99675.60;;;30.80
69590;BMP180;56792;50.644;17.984;2022-07-04T17:11:56;99665.60;;;29.70
69590;BMP180;56792;50.644;17.984;2022-07-04T17:23:41;99665.00;;;29.20
69590;BMP180;56792;50.644;17.984;2022-07-04T18:36:12;99659.40;;;27.20
69590;BMP180;56792;50.644;17.984;2022-07-04T18:38:44;99664.00;;;27.00
69590;BMP180;56792;50.644;17.984;2022-07-04T20:04:36;99754.20;;;23.90
69590;BMP180;56792;50.644;17.984;2022-07-04T20:07:12;99752.60;;;23.90
69590;BMP180;56792;50.644;17.984;2022-07-04T20:26:19;99742.40;;;23.60
69590;BMP180;56792;50.644;17.984;2022-07-04T20:29:34;99745.80;;;23.50
69590;BMP180;56792;50.644;17.984;2022-07-04T20:32:32;99747.60;;;23.40
69590;BMP180;56792;50.644;17.984;2022-07-04T20:35:28;99747.40;;;23.40
69590;BMP180;56792;50.644;17.984;2022-07-04T20:38:26;99745.60;;;23.42
69590;BMP180;56792;50.644;17.984;2022-07-04T20:58:48;99755.00;;;22.86
69590;BMP180;56792;50.644;17.984;2022-07-04T21:01:22;99744.40;;;22.80
69590;BMP180;56792;50.644;17.984;2022-07-04T21:04:01;99755.40;;;22.80
69590;BMP180;56792;50.644;17.984;2022-07-04T21:06:41;99748.80;;;22.80
69590;BMP180;56792;50.644;17.984;2022-07-04T21:09:33;99747.00;;;22.80
69590;BMP180;56792;50.644;17.984;2022-07-04T21:30:17;99751.60;;;22.40
69590;BMP180;56792;50.644;17.984;2022-07-04T21:37:07;99754.80;;;22.30
69590;BMP180;56792;50.644;17.984;2022-07-04T21:43:44;99758.80;;;22.20
69590;BMP180;56792;50.644;17.984;2022-07-04T21:46:31;99757.60;;;22.12
69590;BMP180;56792;50.644;17.984;2022-07-04T21:49:43;99754.80;;;22.10
69590;BMP180;56792;50.644;17.984;2022-07-04T21:52:13;99759.20;;;22.10
69590;BMP180;56792;50.644;17.984;2022-07-04T21:55:45;99757.60;;;22.00
